首页
METAR-TAF:

METAR-TAF

机场 :

Trent Lott International Airport

帕斯卡古拉, 密西西比州, 美国

纬度: 30-27-49N, 经度: 088-31-55W, 海拔: 5米

当前天气观测

该预报发布于58分钟前的15:53 UTC
风速4节,风向多变
温度 22°C
湿度 38%
气压 1019 hPa
能見度: 16.1公里
天空无云

METAR: KPQL 021553Z AUTO VRB04KT 10SM CLR 22/07 A3010 RMK AO2 SLP192 T02170067

时间: 11:51 (16:51 UTC)


TAF: 丢失

超过4000个机场的气象观测和天气预报(METAR&TAF报告)。

可查询的气象台以黄色和红色小点在地图上表示。

将鼠标移到小点上方,可查看气象台名称。

然后点击查看天气观测和预报。

如需切换地图:点击带黑十字的绿色按钮放大地图;点击带横线的绿色按钮缩小地图;或者点击绿色箭头查看邻近地区的地图。


METAR-TAF: